VIV4167 MMVR-MMMY
Flight info
| Callsign | VIV4167 |
|---|---|
| Flight time | 1h 25m |
| Altitude | 36000 |
| Route | DURIB UT61 TAM UJ15 CVM UJ15E RETOS |
| Aircraft | A21N/M-SDE3FGHIRWY/LB1 |
Departure
| Time | 2026-04-23 21:34 |
|---|---|
| Airport | General Heriberto Jara International Airport (MMVR) |
Arrival
| Time | 2026-04-23 23:00 |
|---|---|
| Airport | Monterrey International Airport (MMMY) |
| Time | Latitude | Longitude | Altitude | Speed | Heading |
|---|---|---|---|---|---|
| 2026-04-23 20:45 | 19.14266 | -96.18421 | 89 ft | 0 kts | 103° |
| 2026-04-23 21:24 | 19.14268 | -96.18429 | 89 ft | 2 kts | 102° |
| 2026-04-23 21:24 | 19.14272 | -96.18444 | 89 ft | 2 kts | 118° |
| 2026-04-23 21:25 | 19.14280 | -96.18457 | 90 ft | 2 kts | 128° |
| 2026-04-23 21:25 | 19.14291 | -96.18469 | 89 ft | 2 kts | 140° |
| 2026-04-23 21:25 | 19.14303 | -96.18478 | 90 ft | 2 kts | 152° |
| 2026-04-23 21:25 | 19.14317 | -96.18484 | 90 ft | 2 kts | 163° |
| 2026-04-23 21:26 | 19.14331 | -96.18488 | 89 ft | 2 kts | 175° |
| 2026-04-23 21:26 | 19.14347 | -96.18488 | 89 ft | 2 kts | 186° |
| 2026-04-23 21:26 | 19.14354 | -96.18486 | 89 ft | 1 kts | 193° |
| 2026-04-23 21:26 | 19.14357 | -96.18485 | 89 ft | 0 kts | 192° |
| 2026-04-23 21:28 | 19.14350 | -96.18487 | 89 ft | 2 kts | 192° |
| 2026-04-23 21:28 | 19.14330 | -96.18491 | 89 ft | 3 kts | 192° |
| 2026-04-23 21:29 | 19.14298 | -96.18498 | 90 ft | 5 kts | 189° |
| 2026-04-23 21:29 | 19.14257 | -96.18504 | 91 ft | 6 kts | 187° |
| 2026-04-23 21:29 | 19.14214 | -96.18521 | 91 ft | 7 kts | 228° |
| 2026-04-23 21:29 | 19.14204 | -96.18580 | 92 ft | 9 kts | 271° |
| 2026-04-23 21:30 | 19.14176 | -96.18643 | 93 ft | 10 kts | 222° |
| 2026-04-23 21:30 | 19.14116 | -96.18696 | 94 ft | 11 kts | 223° |
| 2026-04-23 21:30 | 19.14053 | -96.18758 | 96 ft | 12 kts | 223° |
| 2026-04-23 21:30 | 19.13982 | -96.18828 | 97 ft | 14 kts | 223° |
| 2026-04-23 21:31 | 19.13889 | -96.18881 | 99 ft | 16 kts | 194° |
| 2026-04-23 21:31 | 19.13776 | -96.18903 | 100 ft | 17 kts | 190° |
| 2026-04-23 21:31 | 19.13656 | -96.18926 | 102 ft | 17 kts | 191° |
| 2026-04-23 21:31 | 19.13531 | -96.18954 | 103 ft | 19 kts | 194° |
| 2026-04-23 21:32 | 19.13397 | -96.18981 | 104 ft | 20 kts | 190° |
| 2026-04-23 21:32 | 19.13254 | -96.19009 | 104 ft | 21 kts | 191° |
| 2026-04-23 21:32 | 19.13105 | -96.19040 | 104 ft | 21 kts | 191° |
| 2026-04-23 21:32 | 19.12969 | -96.19066 | 102 ft | 13 kts | 188° |
| 2026-04-23 21:33 | 19.12903 | -96.19048 | 101 ft | 9 kts | 150° |
| 2026-04-23 21:33 | 19.12853 | -96.19061 | 101 ft | 7 kts | 260° |
| 2026-04-23 21:33 | 19.12886 | -96.19089 | 101 ft | 7 kts | 5° |
| 2026-04-23 21:33 | 19.12968 | -96.19073 | 102 ft | 33 kts | 12° |
| 2026-04-23 21:34 | 19.13462 | -96.18964 | 104 ft | 107 kts | 12° |
| 2026-04-23 21:34 | 19.14404 | -96.18771 | 100 ft | 165 kts | 14° |
| 2026-04-23 21:34 | 19.15590 | -96.18562 | 515 ft | 177 kts | 12° |
| 2026-04-23 21:34 | 19.16819 | -96.18332 | 1116 ft | 183 kts | 14° |
| 2026-04-23 21:35 | 19.18490 | -96.17994 | 2036 ft | 185 kts | 14° |
| 2026-04-23 21:35 | 19.19318 | -96.17834 | 2374 ft | 184 kts | 14° |
| 2026-04-23 21:35 | 19.20624 | -96.17587 | 2665 ft | 195 kts | 13° |
| 2026-04-23 21:35 | 19.21988 | -96.17339 | 2992 ft | 204 kts | 13° |
| 2026-04-23 21:36 | 19.24698 | -96.18304 | 3490 ft | 234 kts | 306° |
| 2026-04-23 21:36 | 19.25605 | -96.19810 | 3702 ft | 252 kts | 301° |
| 2026-04-23 21:36 | 19.26607 | -96.21400 | 3988 ft | 268 kts | 306° |
| 2026-04-23 21:37 | 19.27767 | -96.23011 | 4349 ft | 280 kts | 308° |
| 2026-04-23 21:37 | 19.29007 | -96.24615 | 4944 ft | 283 kts | 309° |
| 2026-04-23 21:37 | 19.30285 | -96.26221 | 5568 ft | 284 kts | 309° |
| 2026-04-23 21:37 | 19.31567 | -96.27792 | 6191 ft | 285 kts | 314° |
| 2026-04-23 21:38 | 19.33217 | -96.28974 | 6770 ft | 287 kts | 333° |
| 2026-04-23 21:38 | 19.35014 | -96.29881 | 7378 ft | 288 kts | 334° |
| 2026-04-23 21:38 | 19.36815 | -96.30798 | 8008 ft | 287 kts | 334° |
| 2026-04-23 21:38 | 19.38599 | -96.31720 | 8596 ft | 287 kts | 334° |
| 2026-04-23 21:39 | 19.40390 | -96.32655 | 9172 ft | 288 kts | 334° |
| 2026-04-23 21:39 | 19.42181 | -96.33596 | 9721 ft | 289 kts | 334° |
| 2026-04-23 21:39 | 19.43992 | -96.34551 | 10240 ft | 290 kts | 333° |
| 2026-04-23 21:39 | 19.45819 | -96.35516 | 10509 ft | 303 kts | 333° |
| 2026-04-23 21:40 | 19.47759 | -96.36543 | 10752 ft | 315 kts | 333° |
| 2026-04-23 21:40 | 19.49760 | -96.37601 | 11017 ft | 325 kts | 333° |
| 2026-04-23 21:40 | 19.51802 | -96.38681 | 11492 ft | 328 kts | 333° |
| 2026-04-23 21:40 | 19.53838 | -96.39758 | 12032 ft | 331 kts | 333° |
| 2026-04-23 21:41 | 19.55918 | -96.40857 | 12536 ft | 332 kts | 333° |
| 2026-04-23 21:41 | 19.57989 | -96.41952 | 13038 ft | 333 kts | 333° |
| 2026-04-23 21:41 | 19.60054 | -96.43045 | 13519 ft | 336 kts | 333° |
| 2026-04-23 21:41 | 19.62161 | -96.44161 | 14039 ft | 338 kts | 333° |
| 2026-04-23 21:42 | 19.64283 | -96.45287 | 14509 ft | 340 kts | 333° |
| 2026-04-23 21:42 | 19.66392 | -96.46407 | 14948 ft | 343 kts | 332° |
| 2026-04-23 21:42 | 19.68548 | -96.47549 | 15422 ft | 345 kts | 332° |
| 2026-04-23 21:42 | 19.70717 | -96.48699 | 15864 ft | 348 kts | 332° |
| 2026-04-23 21:43 | 19.72880 | -96.49847 | 16283 ft | 351 kts | 332° |
| 2026-04-23 21:43 | 19.75085 | -96.51016 | 16769 ft | 353 kts | 332° |
| 2026-04-23 21:43 | 19.77278 | -96.52181 | 17205 ft | 354 kts | 332° |
| 2026-04-23 21:43 | 19.79484 | -96.53354 | 17590 ft | 357 kts | 331° |
| 2026-04-23 21:44 | 19.81705 | -96.54538 | 18027 ft | 359 kts | 331° |
| 2026-04-23 21:44 | 19.83933 | -96.55726 | 18472 ft | 359 kts | 332° |
| 2026-04-23 21:44 | 19.86195 | -96.56931 | 18859 ft | 361 kts | 332° |
| 2026-04-23 21:44 | 19.88443 | -96.58128 | 19267 ft | 362 kts | 332° |
| 2026-04-23 21:45 | 19.90714 | -96.59335 | 19667 ft | 363 kts | 332° |
| 2026-04-23 21:45 | 19.92972 | -96.60532 | 20061 ft | 363 kts | 332° |
| 2026-04-23 21:45 | 19.95236 | -96.61737 | 20435 ft | 364 kts | 332° |
| 2026-04-23 21:45 | 19.97500 | -96.62944 | 20794 ft | 365 kts | 332° |
| 2026-04-23 21:46 | 19.99776 | -96.64159 | 21142 ft | 366 kts | 332° |
| 2026-04-23 21:46 | 20.01895 | -96.65289 | 21445 ft | 367 kts | 332° |
| 2026-04-23 21:46 | 20.04193 | -96.66515 | 21764 ft | 368 kts | 332° |
| 2026-04-23 21:46 | 20.06500 | -96.67748 | 22078 ft | 370 kts | 332° |
| 2026-04-23 21:47 | 20.08811 | -96.68982 | 22393 ft | 371 kts | 332° |
| 2026-04-23 21:47 | 20.11118 | -96.70216 | 22678 ft | 374 kts | 332° |
| 2026-04-23 21:47 | 20.13470 | -96.71477 | 22986 ft | 376 kts | 332° |
| 2026-04-23 21:47 | 20.15816 | -96.72731 | 23313 ft | 377 kts | 332° |
| 2026-04-23 21:48 | 20.18152 | -96.73981 | 23640 ft | 378 kts | 332° |
| 2026-04-23 21:48 | 20.20533 | -96.75244 | 23967 ft | 380 kts | 332° |
| 2026-04-23 21:48 | 20.22877 | -96.76470 | 24542 ft | 373 kts | 333° |
| 2026-04-23 21:48 | 20.25155 | -96.77657 | 25298 ft | 362 kts | 333° |
| 2026-04-23 21:49 | 20.27418 | -96.78841 | 25807 ft | 359 kts | 332° |
| 2026-04-23 21:49 | 20.29667 | -96.80019 | 26104 ft | 360 kts | 333° |
| 2026-04-23 21:49 | 20.31911 | -96.81196 | 26375 ft | 363 kts | 333° |
| 2026-04-23 21:49 | 20.34195 | -96.82395 | 26671 ft | 364 kts | 333° |
| 2026-04-23 21:50 | 20.36447 | -96.83576 | 26962 ft | 365 kts | 333° |
| 2026-04-23 21:50 | 20.38753 | -96.84785 | 27272 ft | 366 kts | 333° |
| 2026-04-23 21:50 | 20.41033 | -96.85982 | 27560 ft | 368 kts | 333° |
| 2026-04-23 21:50 | 20.43355 | -96.87201 | 27855 ft | 369 kts | 333° |
| 2026-04-23 21:51 | 20.45664 | -96.88415 | 28142 ft | 371 kts | 333° |
| 2026-04-23 21:51 | 20.47959 | -96.89621 | 28422 ft | 372 kts | 333° |
| 2026-04-23 21:51 | 20.50292 | -96.90848 | 28711 ft | 373 kts | 333° |
| 2026-04-23 21:51 | 20.52641 | -96.92084 | 29001 ft | 374 kts | 333° |
| 2026-04-23 21:52 | 20.54959 | -96.93307 | 29280 ft | 376 kts | 333° |
| 2026-04-23 21:52 | 20.57330 | -96.94556 | 29560 ft | 377 kts | 333° |
| 2026-04-23 21:52 | 20.59681 | -96.95796 | 29839 ft | 378 kts | 333° |
| 2026-04-23 21:52 | 20.62044 | -96.97041 | 30104 ft | 379 kts | 333° |
| 2026-04-23 21:53 | 20.64411 | -96.98291 | 30373 ft | 380 kts | 333° |
| 2026-04-23 21:53 | 20.66774 | -96.99540 | 30670 ft | 381 kts | 333° |
| 2026-04-23 21:53 | 20.69162 | -97.00800 | 30942 ft | 381 kts | 333° |
| 2026-04-23 21:53 | 20.71554 | -97.02064 | 31168 ft | 383 kts | 333° |
| 2026-04-23 21:54 | 20.73927 | -97.03317 | 31379 ft | 385 kts | 333° |
| 2026-04-23 21:54 | 20.76362 | -97.04604 | 31632 ft | 386 kts | 333° |
| 2026-04-23 21:54 | 20.78748 | -97.05868 | 31764 ft | 387 kts | 333° |
| 2026-04-23 21:55 | 20.84369 | -97.08845 | 31771 ft | 385 kts | 333° |
| 2026-04-23 21:55 | 20.88372 | -97.10965 | 31773 ft | 385 kts | 333° |
| 2026-04-23 21:56 | 20.93162 | -97.13502 | 31773 ft | 385 kts | 333° |
| 2026-04-23 21:56 | 20.97971 | -97.16055 | 31772 ft | 386 kts | 333° |
| 2026-04-23 21:57 | 21.02797 | -97.18618 | 31812 ft | 388 kts | 333° |
| 2026-04-23 21:57 | 21.05238 | -97.19916 | 32043 ft | 389 kts | 333° |
| 2026-04-23 21:57 | 21.07656 | -97.21201 | 32334 ft | 388 kts | 333° |
| 2026-04-23 21:57 | 21.10083 | -97.22491 | 32581 ft | 389 kts | 333° |
| 2026-04-23 21:58 | 21.12501 | -97.23779 | 32809 ft | 390 kts | 333° |
| 2026-04-23 21:58 | 21.14937 | -97.25073 | 33043 ft | 390 kts | 333° |
| 2026-04-23 21:58 | 21.17368 | -97.26365 | 33267 ft | 391 kts | 332° |
| 2026-04-23 21:58 | 21.19834 | -97.27679 | 33486 ft | 392 kts | 332° |
| 2026-04-23 21:59 | 21.22288 | -97.28987 | 33701 ft | 393 kts | 333° |
| 2026-04-23 21:59 | 21.27162 | -97.31584 | 33771 ft | 393 kts | 332° |
| 2026-04-23 22:00 | 21.34524 | -97.35509 | 33776 ft | 393 kts | 332° |
| 2026-04-23 22:00 | 21.39411 | -97.38118 | 33778 ft | 392 kts | 333° |
| 2026-04-23 22:01 | 21.44307 | -97.40735 | 33777 ft | 392 kts | 332° |
| 2026-04-23 22:01 | 21.49213 | -97.43358 | 33778 ft | 392 kts | 333° |
| 2026-04-23 22:02 | 21.54086 | -97.45966 | 33775 ft | 393 kts | 332° |
| 2026-04-23 22:02 | 21.59020 | -97.48609 | 33775 ft | 402 kts | 333° |
| 2026-04-23 22:03 | 21.64084 | -97.51321 | 33770 ft | 409 kts | 332° |
| 2026-04-23 22:03 | 21.69210 | -97.54072 | 33766 ft | 410 kts | 332° |
| 2026-04-23 22:04 | 21.74304 | -97.56806 | 33763 ft | 410 kts | 333° |
| 2026-04-23 22:04 | 21.79397 | -97.59543 | 33762 ft | 410 kts | 332° |
| 2026-04-23 22:05 | 21.84532 | -97.62305 | 33763 ft | 410 kts | 332° |
| 2026-04-23 22:05 | 21.89598 | -97.65034 | 33763 ft | 409 kts | 332° |
| 2026-04-23 22:06 | 21.94716 | -97.67786 | 33761 ft | 408 kts | 332° |
| 2026-04-23 22:06 | 21.99797 | -97.70519 | 33763 ft | 409 kts | 332° |
| 2026-04-23 22:07 | 22.04897 | -97.73266 | 33768 ft | 409 kts | 332° |
| 2026-04-23 22:07 | 22.09965 | -97.75999 | 33769 ft | 408 kts | 332° |
| 2026-04-23 22:08 | 22.15079 | -97.78763 | 33771 ft | 409 kts | 332° |
| 2026-04-23 22:08 | 22.20149 | -97.81506 | 33772 ft | 409 kts | 332° |
| 2026-04-23 22:09 | 22.25234 | -97.84256 | 33776 ft | 408 kts | 332° |
| 2026-04-23 22:09 | 22.30170 | -97.87286 | 33770 ft | 408 kts | 326° |
| 2026-04-23 22:10 | 22.34856 | -97.90764 | 33770 ft | 408 kts | 324° |
| 2026-04-23 22:10 | 22.39493 | -97.94310 | 33773 ft | 407 kts | 324° |
| 2026-04-23 22:11 | 22.44112 | -97.97847 | 33774 ft | 407 kts | 324° |
| 2026-04-23 22:11 | 22.48751 | -98.01404 | 33774 ft | 407 kts | 324° |
| 2026-04-23 22:12 | 22.53361 | -98.04945 | 33773 ft | 408 kts | 323° |
| 2026-04-23 22:12 | 22.57981 | -98.08497 | 33774 ft | 408 kts | 323° |
| 2026-04-23 22:13 | 22.62605 | -98.12048 | 33776 ft | 407 kts | 323° |
| 2026-04-23 22:13 | 22.67231 | -98.15597 | 33771 ft | 407 kts | 324° |
| 2026-04-23 22:14 | 22.71862 | -98.19157 | 33773 ft | 407 kts | 323° |
| 2026-04-23 22:14 | 22.76493 | -98.22723 | 33774 ft | 407 kts | 324° |
| 2026-04-23 22:15 | 22.81093 | -98.26269 | 33782 ft | 408 kts | 324° |
| 2026-04-23 22:15 | 22.85737 | -98.29850 | 33786 ft | 409 kts | 323° |
| 2026-04-23 22:16 | 22.90339 | -98.33405 | 33788 ft | 408 kts | 324° |
| 2026-04-23 22:16 | 22.94964 | -98.36977 | 33793 ft | 407 kts | 323° |
| 2026-04-23 22:17 | 22.99571 | -98.40544 | 33799 ft | 407 kts | 322° |
| 2026-04-23 22:17 | 23.04180 | -98.44126 | 33804 ft | 407 kts | 324° |
| 2026-04-23 22:18 | 23.08834 | -98.47704 | 33818 ft | 408 kts | 324° |
| 2026-04-23 22:18 | 23.13460 | -98.51291 | 33837 ft | 407 kts | 323° |
| 2026-04-23 22:19 | 23.18054 | -98.54863 | 33847 ft | 406 kts | 324° |
| 2026-04-23 22:19 | 23.22641 | -98.58435 | 33854 ft | 406 kts | 323° |
| 2026-04-23 22:20 | 23.27245 | -98.62022 | 33851 ft | 407 kts | 323° |
| 2026-04-23 22:20 | 23.31839 | -98.65595 | 33832 ft | 406 kts | 323° |
| 2026-04-23 22:21 | 23.36454 | -98.69179 | 33804 ft | 407 kts | 323° |
| 2026-04-23 22:21 | 23.41062 | -98.72773 | 33784 ft | 406 kts | 323° |
| 2026-04-23 22:22 | 23.45661 | -98.76363 | 33770 ft | 407 kts | 323° |
| 2026-04-23 22:22 | 23.50248 | -98.79949 | 33776 ft | 407 kts | 323° |
| 2026-04-23 22:23 | 23.54833 | -98.83539 | 33784 ft | 405 kts | 323° |
| 2026-04-23 22:23 | 23.59410 | -98.87125 | 33784 ft | 405 kts | 323° |
| 2026-04-23 22:24 | 23.64028 | -98.90665 | 33782 ft | 405 kts | 326° |
| 2026-04-23 22:24 | 23.68972 | -98.93571 | 33775 ft | 407 kts | 333° |
| 2026-04-23 22:25 | 23.74342 | -98.95699 | 33772 ft | 411 kts | 341° |
| 2026-04-23 22:25 | 23.79971 | -98.96949 | 33633 ft | 417 kts | 349° |
| 2026-04-23 22:26 | 23.82849 | -98.97321 | 33342 ft | 414 kts | 349° |
| 2026-04-23 22:26 | 23.85713 | -98.97665 | 33066 ft | 413 kts | 349° |
| 2026-04-23 22:26 | 23.88571 | -98.98003 | 32808 ft | 412 kts | 349° |
| 2026-04-23 22:26 | 23.91424 | -98.98340 | 32545 ft | 411 kts | 350° |
| 2026-04-23 22:27 | 23.94270 | -98.98676 | 32289 ft | 411 kts | 349° |
| 2026-04-23 22:27 | 23.97096 | -98.99010 | 32034 ft | 413 kts | 349° |
| 2026-04-23 22:27 | 23.99962 | -98.99349 | 31774 ft | 414 kts | 350° |
| 2026-04-23 22:27 | 24.02860 | -98.99693 | 31512 ft | 414 kts | 350° |
| 2026-04-23 22:28 | 24.05707 | -99.00029 | 31260 ft | 415 kts | 350° |
| 2026-04-23 22:28 | 24.08588 | -99.00370 | 31003 ft | 416 kts | 350° |
| 2026-04-23 22:28 | 24.11493 | -99.00716 | 30746 ft | 417 kts | 350° |
| 2026-04-23 22:28 | 24.14371 | -99.01058 | 30492 ft | 418 kts | 350° |
| 2026-04-23 22:29 | 24.17293 | -99.01403 | 30233 ft | 419 kts | 350° |
| 2026-04-23 22:29 | 24.20214 | -99.01750 | 29976 ft | 421 kts | 350° |
| 2026-04-23 22:29 | 24.23104 | -99.02092 | 29724 ft | 422 kts | 351° |
| 2026-04-23 22:29 | 24.26043 | -99.02440 | 29466 ft | 423 kts | 350° |
| 2026-04-23 22:30 | 24.28981 | -99.02787 | 29214 ft | 424 kts | 350° |
| 2026-04-23 22:30 | 24.31933 | -99.03138 | 28959 ft | 426 kts | 351° |
| 2026-04-23 22:30 | 24.34858 | -99.03485 | 28707 ft | 427 kts | 350° |
| 2026-04-23 22:30 | 24.37836 | -99.03840 | 28454 ft | 427 kts | 351° |
| 2026-04-23 22:31 | 24.40770 | -99.04188 | 28202 ft | 425 kts | 351° |
| 2026-04-23 22:31 | 24.43724 | -99.04542 | 27949 ft | 423 kts | 350° |
| 2026-04-23 22:31 | 24.46658 | -99.04890 | 27697 ft | 422 kts | 350° |
| 2026-04-23 22:31 | 24.49583 | -99.05241 | 27440 ft | 422 kts | 351° |
| 2026-04-23 22:32 | 24.52467 | -99.05586 | 27192 ft | 420 kts | 351° |
| 2026-04-23 22:32 | 24.55381 | -99.05934 | 26939 ft | 419 kts | 350° |
| 2026-04-23 22:32 | 24.58278 | -99.06280 | 26689 ft | 418 kts | 350° |
| 2026-04-23 22:32 | 24.61166 | -99.06626 | 26437 ft | 417 kts | 350° |
| 2026-04-23 22:33 | 24.64037 | -99.06971 | 26185 ft | 415 kts | 350° |
| 2026-04-23 22:33 | 24.66906 | -99.07317 | 25931 ft | 414 kts | 350° |
| 2026-04-23 22:33 | 24.69769 | -99.07661 | 25680 ft | 413 kts | 350° |
| 2026-04-23 22:33 | 24.72653 | -99.08006 | 25430 ft | 412 kts | 350° |
| 2026-04-23 22:34 | 24.75491 | -99.08349 | 25180 ft | 411 kts | 350° |
| 2026-04-23 22:34 | 24.78322 | -99.08688 | 24930 ft | 410 kts | 350° |
| 2026-04-23 22:34 | 24.81154 | -99.09032 | 24674 ft | 409 kts | 350° |
| 2026-04-23 22:34 | 24.84017 | -99.09377 | 24399 ft | 409 kts | 350° |
| 2026-04-23 22:35 | 24.86849 | -99.09718 | 24105 ft | 407 kts | 350° |
| 2026-04-23 22:35 | 24.89629 | -99.10113 | 23843 ft | 404 kts | 345° |
| 2026-04-23 22:35 | 24.92307 | -99.10998 | 23568 ft | 397 kts | 335° |
| 2026-04-23 22:35 | 24.94730 | -99.12362 | 23084 ft | 390 kts | 325° |
| 2026-04-23 22:36 | 24.96881 | -99.14193 | 22798 ft | 387 kts | 315° |
| 2026-04-23 22:36 | 24.98743 | -99.16296 | 22779 ft | 389 kts | 312° |
| 2026-04-23 22:36 | 25.00593 | -99.18484 | 22773 ft | 389 kts | 311° |
| 2026-04-23 22:36 | 25.02424 | -99.20664 | 22766 ft | 388 kts | 311° |
| 2026-04-23 22:37 | 25.04260 | -99.22850 | 22773 ft | 388 kts | 311° |
| 2026-04-23 22:37 | 25.06093 | -99.25031 | 22769 ft | 388 kts | 311° |
| 2026-04-23 22:37 | 25.07934 | -99.27223 | 22794 ft | 388 kts | 311° |
| 2026-04-23 22:37 | 25.09765 | -99.29400 | 22794 ft | 388 kts | 311° |
| 2026-04-23 22:38 | 25.11611 | -99.31597 | 22789 ft | 388 kts | 311° |
| 2026-04-23 22:38 | 25.13453 | -99.33791 | 22786 ft | 388 kts | 311° |
| 2026-04-23 22:38 | 25.15299 | -99.35988 | 22634 ft | 388 kts | 311° |
| 2026-04-23 22:38 | 25.17133 | -99.38171 | 22373 ft | 386 kts | 311° |
| 2026-04-23 22:39 | 25.18957 | -99.40308 | 22166 ft | 378 kts | 314° |
| 2026-04-23 22:39 | 25.20931 | -99.42146 | 22037 ft | 367 kts | 322° |
| 2026-04-23 22:39 | 25.23087 | -99.43660 | 21712 ft | 368 kts | 329° |
| 2026-04-23 22:39 | 25.25386 | -99.44917 | 21307 ft | 367 kts | 332° |
| 2026-04-23 22:40 | 25.27683 | -99.46105 | 20884 ft | 364 kts | 332° |
| 2026-04-23 22:40 | 25.29961 | -99.47276 | 20451 ft | 361 kts | 332° |
| 2026-04-23 22:40 | 25.34490 | -99.49612 | 19572 ft | 356 kts | 332° |
| 2026-04-23 22:41 | 25.36736 | -99.50774 | 19146 ft | 353 kts | 332° |
| 2026-04-23 22:41 | 25.38952 | -99.51923 | 18717 ft | 351 kts | 332° |
| 2026-04-23 22:41 | 25.41145 | -99.53062 | 18279 ft | 349 kts | 332° |
| 2026-04-23 22:41 | 25.43344 | -99.54203 | 17847 ft | 346 kts | 332° |
| 2026-04-23 22:42 | 25.45509 | -99.55327 | 17434 ft | 344 kts | 332° |
| 2026-04-23 22:42 | 25.47664 | -99.56446 | 17021 ft | 342 kts | 332° |
| 2026-04-23 22:42 | 25.49842 | -99.57577 | 16858 ft | 350 kts | 332° |
| 2026-04-23 22:42 | 25.52078 | -99.58736 | 16884 ft | 355 kts | 332° |
| 2026-04-23 22:43 | 25.54307 | -99.59894 | 16915 ft | 356 kts | 332° |
| 2026-04-23 22:43 | 25.56539 | -99.61053 | 16937 ft | 356 kts | 332° |
| 2026-04-23 22:43 | 25.58811 | -99.62234 | 16952 ft | 356 kts | 332° |
| 2026-04-23 22:43 | 25.61050 | -99.63398 | 16963 ft | 355 kts | 332° |
| 2026-04-23 22:44 | 25.63288 | -99.64565 | 16956 ft | 356 kts | 332° |
| 2026-04-23 22:44 | 25.65535 | -99.65736 | 16950 ft | 355 kts | 332° |
| 2026-04-23 22:44 | 25.67786 | -99.66911 | 16963 ft | 356 kts | 332° |
| 2026-04-23 22:44 | 25.70026 | -99.68081 | 16959 ft | 356 kts | 332° |
| 2026-04-23 22:45 | 25.72274 | -99.69254 | 16963 ft | 357 kts | 332° |
| 2026-04-23 22:45 | 25.74512 | -99.70422 | 17067 ft | 349 kts | 332° |
| 2026-04-23 22:45 | 25.76610 | -99.71632 | 17006 ft | 332 kts | 322° |
| 2026-04-23 22:45 | 25.78276 | -99.73277 | 16989 ft | 313 kts | 307° |
| 2026-04-23 22:46 | 25.79513 | -99.75228 | 17000 ft | 310 kts | 300° |
| 2026-04-23 22:46 | 25.80658 | -99.77261 | 16995 ft | 311 kts | 300° |
| 2026-04-23 22:46 | 25.81803 | -99.79301 | 16817 ft | 313 kts | 300° |
| 2026-04-23 22:46 | 25.82965 | -99.81350 | 16407 ft | 312 kts | 300° |
| 2026-04-23 22:47 | 25.84124 | -99.83379 | 16018 ft | 310 kts | 300° |
| 2026-04-23 22:47 | 25.85262 | -99.85363 | 15668 ft | 308 kts | 300° |
| 2026-04-23 22:47 | 25.86402 | -99.87350 | 15312 ft | 306 kts | 300° |
| 2026-04-23 22:47 | 25.87541 | -99.89338 | 14926 ft | 304 kts | 300° |
| 2026-04-23 22:48 | 25.88676 | -99.91322 | 14533 ft | 302 kts | 300° |
| 2026-04-23 22:48 | 25.89792 | -99.93274 | 14235 ft | 298 kts | 300° |
| 2026-04-23 22:48 | 25.90880 | -99.95173 | 14177 ft | 285 kts | 300° |
| 2026-04-23 22:48 | 25.91924 | -99.96999 | 14139 ft | 273 kts | 300° |
| 2026-04-23 22:49 | 25.92939 | -99.98779 | 13963 ft | 274 kts | 300° |
| 2026-04-23 22:49 | 25.93885 | -100.00438 | 13642 ft | 272 kts | 300° |
| 2026-04-23 22:49 | 25.94892 | -100.02203 | 13370 ft | 267 kts | 300° |
| 2026-04-23 22:49 | 25.95877 | -100.03928 | 13082 ft | 263 kts | 300° |
| 2026-04-23 22:50 | 25.96859 | -100.05652 | 12691 ft | 265 kts | 300° |
| 2026-04-23 22:50 | 25.97852 | -100.07398 | 12197 ft | 274 kts | 300° |
| 2026-04-23 22:50 | 25.98868 | -100.09179 | 11896 ft | 270 kts | 300° |
| 2026-04-23 22:50 | 25.99870 | -100.10937 | 11427 ft | 270 kts | 300° |
| 2026-04-23 22:51 | 26.00875 | -100.12703 | 10907 ft | 275 kts | 301° |
| 2026-04-23 22:51 | 26.01885 | -100.14475 | 10491 ft | 268 kts | 301° |
| 2026-04-23 22:51 | 26.02866 | -100.16197 | 10073 ft | 262 kts | 301° |
| 2026-04-23 22:51 | 26.03841 | -100.17911 | 9650 ft | 261 kts | 301° |
| 2026-04-23 22:52 | 26.04617 | -100.19707 | 9222 ft | 258 kts | 278° |
| 2026-04-23 22:52 | 26.04436 | -100.21622 | 8874 ft | 250 kts | 245° |
| 2026-04-23 22:52 | 26.03402 | -100.23126 | 8533 ft | 243 kts | 216° |
| 2026-04-23 22:52 | 26.02004 | -100.24082 | 8190 ft | 235 kts | 210° |
| 2026-04-23 22:53 | 26.00589 | -100.24984 | 7790 ft | 231 kts | 211° |
| 2026-04-23 22:53 | 25.99225 | -100.25872 | 7476 ft | 220 kts | 211° |
| 2026-04-23 22:53 | 25.97927 | -100.26733 | 6996 ft | 220 kts | 210° |
| 2026-04-23 22:53 | 25.96610 | -100.27612 | 6533 ft | 222 kts | 211° |
| 2026-04-23 22:54 | 25.95282 | -100.28502 | 6178 ft | 224 kts | 211° |
| 2026-04-23 22:54 | 25.93965 | -100.29388 | 5846 ft | 220 kts | 210° |
| 2026-04-23 22:54 | 25.92671 | -100.30259 | 5509 ft | 209 kts | 210° |
| 2026-04-23 22:54 | 25.91443 | -100.31014 | 5203 ft | 200 kts | 198° |
| 2026-04-23 22:55 | 25.90072 | -100.31136 | 4873 ft | 194 kts | 166° |
| 2026-04-23 22:55 | 25.88930 | -100.30454 | 4630 ft | 188 kts | 136° |
| 2026-04-23 22:55 | 25.88085 | -100.29346 | 4541 ft | 188 kts | 124° |
| 2026-04-23 22:55 | 25.87377 | -100.28123 | 4456 ft | 187 kts | 121° |
| 2026-04-23 22:56 | 25.86707 | -100.26874 | 4353 ft | 187 kts | 120° |
| 2026-04-23 22:56 | 25.86062 | -100.25671 | 4174 ft | 177 kts | 120° |
| 2026-04-23 22:56 | 25.85428 | -100.24504 | 3960 ft | 175 kts | 120° |
| 2026-04-23 22:56 | 25.84798 | -100.23347 | 3731 ft | 174 kts | 120° |
| 2026-04-23 22:57 | 25.84171 | -100.22201 | 3511 ft | 174 kts | 120° |
| 2026-04-23 22:57 | 25.83539 | -100.21058 | 3164 ft | 172 kts | 119° |
| 2026-04-23 22:57 | 25.82965 | -100.19923 | 2872 ft | 162 kts | 117° |
| 2026-04-23 22:57 | 25.82436 | -100.18875 | 2589 ft | 148 kts | 119° |
| 2026-04-23 22:58 | 25.81869 | -100.17945 | 2442 ft | 142 kts | 124° |
| 2026-04-23 22:58 | 25.81330 | -100.17046 | 2312 ft | 138 kts | 119° |
| 2026-04-23 22:58 | 25.80854 | -100.16107 | 2170 ft | 142 kts | 119° |
| 2026-04-23 22:58 | 25.80328 | -100.15185 | 2033 ft | 143 kts | 121° |
| 2026-04-23 22:59 | 25.79810 | -100.14262 | 1790 ft | 140 kts | 120° |
| 2026-04-23 22:59 | 25.79322 | -100.13343 | 1635 ft | 137 kts | 120° |
| 2026-04-23 22:59 | 25.78820 | -100.12444 | 1461 ft | 139 kts | 121° |
| 2026-04-23 22:59 | 25.78330 | -100.11558 | 1294 ft | 127 kts | 120° |
| 2026-04-23 23:00 | 25.77932 | -100.10825 | 1272 ft | 86 kts | 122° |
| 2026-04-23 23:00 | 25.77699 | -100.10400 | 1265 ft | 52 kts | 122° |
| 2026-04-23 23:00 | 25.77516 | -100.10068 | 1259 ft | 47 kts | 123° |
| 2026-04-23 23:00 | 25.77357 | -100.09785 | 1254 ft | 33 kts | 122° |
| 2026-04-23 23:01 | 25.77267 | -100.09688 | 1252 ft | 15 kts | 190° |
| 2026-04-23 23:01 | 25.77177 | -100.09747 | 1253 ft | 14 kts | 220° |
| 2026-04-23 23:01 | 25.77160 | -100.09843 | 1254 ft | 13 kts | 296° |
| 2026-04-23 23:01 | 25.77208 | -100.09930 | 1256 ft | 13 kts | 302° |
| 2026-04-23 23:02 | 25.77261 | -100.10025 | 1257 ft | 16 kts | 302° |
| 2026-04-23 23:02 | 25.77326 | -100.10139 | 1259 ft | 18 kts | 301° |
| 2026-04-23 23:02 | 25.77396 | -100.10269 | 1261 ft | 20 kts | 301° |
| 2026-04-23 23:02 | 25.77473 | -100.10407 | 1264 ft | 20 kts | 302° |
| 2026-04-23 23:03 | 25.77542 | -100.10534 | 1267 ft | 19 kts | 299° |
| 2026-04-23 23:03 | 25.77614 | -100.10666 | 1268 ft | 20 kts | 302° |
| 2026-04-23 23:03 | 25.77689 | -100.10802 | 1271 ft | 21 kts | 301° |
| 2026-04-23 23:03 | 25.77766 | -100.10938 | 1274 ft | 19 kts | 300° |
| 2026-04-23 23:04 | 25.77832 | -100.11060 | 1276 ft | 17 kts | 306° |
| 2026-04-23 23:04 | 25.77892 | -100.11178 | 1277 ft | 16 kts | 297° |
| 2026-04-23 23:04 | 25.77951 | -100.11278 | 1280 ft | 14 kts | 303° |
| 2026-04-23 23:04 | 25.78001 | -100.11369 | 1282 ft | 6 kts | 298° |
| 2026-04-23 23:05 | 25.78023 | -100.11414 | 1283 ft | 6 kts | 301° |
| 2026-04-23 23:05 | 25.78050 | -100.11462 | 1284 ft | 7 kts | 289° |
| 2026-04-23 23:05 | 25.78023 | -100.11504 | 1285 ft | 7 kts | 206° |
| 2026-04-23 23:05 | 25.77977 | -100.11534 | 1285 ft | 7 kts | 213° |
| 2026-04-23 23:06 | 25.77951 | -100.11546 | 1285 ft | 3 kts | 161° |
| 2026-04-23 23:06 | 25.77931 | -100.11532 | 1285 ft | 3 kts | 146° |
| 2026-04-23 23:06 | 25.77920 | -100.11519 | 1285 ft | 1 kts | 122° |
| 2026-04-23 23:06 | 25.77917 | -100.11513 | 1285 ft | 0 kts | 121° |